createdAt,value
2017-12-13T00:01:27.059Z,3.75
2017-12-13T00:04:01.129Z,3.30
2017-12-13T00:06:35.726Z,4.37
2017-12-13T00:09:09.485Z,3.40
2017-12-13T00:11:43.217Z,4.10
2017-12-13T00:14:16.947Z,3.50
2017-12-13T00:16:50.811Z,3.65
2017-12-13T00:19:24.751Z,4.00
2017-12-13T00:21:58.480Z,3.47
2017-12-13T00:24:32.329Z,3.40
2017-12-13T00:27:06.048Z,4.07
2017-12-13T00:29:39.900Z,3.80
2017-12-13T00:32:13.569Z,4.25
2017-12-13T00:34:47.403Z,3.15
2017-12-13T00:37:21.117Z,4.20
2017-12-13T00:39:55.222Z,3.85
2017-12-13T00:42:28.928Z,3.35
2017-12-13T00:45:02.689Z,3.28
2017-12-13T00:47:39.055Z,3.80
2017-12-13T00:50:12.803Z,3.90
2017-12-13T00:52:46.663Z,3.65
2017-12-13T00:55:20.313Z,3.30
2017-12-13T00:57:55.023Z,3.70
2017-12-13T01:00:28.761Z,3.15
2017-12-13T01:03:02.553Z,3.28
2017-12-13T01:05:36.955Z,2.78
2017-12-13T01:08:10.791Z,2.97
2017-12-13T01:10:45.285Z,2.50
2017-12-13T01:13:19.842Z,2.60
2017-12-13T01:15:53.632Z,2.50
2017-12-13T01:18:27.449Z,2.12
2017-12-13T01:21:01.940Z,2.42
2017-12-13T01:23:35.741Z,2.97
2017-12-13T01:26:10.325Z,2.50
2017-12-13T01:28:44.101Z,2.25
2017-12-13T01:31:17.828Z,2.70
2017-12-13T01:33:52.568Z,2.70
2017-12-13T01:36:26.444Z,2.12
2017-12-13T01:39:00.209Z,3.53
2017-12-13T01:41:34.042Z,2.33
2017-12-13T01:44:08.577Z,2.60
2017-12-13T01:46:43.066Z,2.00
2017-12-13T01:49:16.921Z,2.40
2017-12-13T01:51:50.566Z,2.35
2017-12-13T01:54:24.196Z,2.00
2017-12-13T01:56:58.732Z,1.95
2017-12-13T01:59:32.326Z,2.12
2017-12-13T02:02:06.358Z,2.62
2017-12-13T02:04:40.134Z,2.65
2017-12-13T02:07:14.131Z,2.17
2017-12-13T02:09:47.869Z,2.80
2017-12-13T02:12:21.993Z,2.60
2017-12-13T02:14:56.497Z,2.50
2017-12-13T02:17:30.338Z,2.90
2017-12-13T02:20:04.107Z,2.75
2017-12-13T02:22:37.975Z,2.50
2017-12-13T02:25:11.948Z,3.00
2017-12-13T02:27:45.711Z,2.20
2017-12-13T02:30:19.521Z,2.00
2017-12-13T02:32:54.196Z,1.85
2017-12-13T02:35:27.933Z,2.40
2017-12-13T02:38:01.757Z,2.40
2017-12-13T02:43:49.746Z,2.45
2017-12-13T02:46:28.735Z,1.90
2017-12-13T02:49:02.574Z,1.92
2017-12-13T02:51:53.917Z,1.92
2017-12-13T02:54:40.079Z,2.12
2017-12-13T02:57:14.049Z,1.85
2017-12-13T02:59:48.165Z,1.90
2017-12-13T03:02:21.976Z,2.03
2017-12-13T03:04:57.921Z,1.67
2017-12-13T03:07:31.650Z,2.03
2017-12-13T03:10:10.482Z,2.05
2017-12-13T03:12:44.222Z,2.00
2017-12-13T03:15:20.095Z,2.10
2017-12-13T03:17:56.029Z,1.70
2017-12-13T03:20:29.806Z,2.78
2017-12-13T03:23:03.843Z,2.00
2017-12-13T03:25:38.702Z,1.67
2017-12-13T03:28:12.364Z,1.83
2017-12-13T03:31:05.705Z,2.00
2017-12-13T03:33:39.572Z,1.85
2017-12-13T03:36:18.806Z,1.73
2017-12-13T03:38:52.647Z,1.65
2017-12-13T03:41:27.803Z,2.30
2017-12-13T03:44:01.511Z,1.60
2017-12-13T03:46:37.691Z,2.87
2017-12-13T03:49:12.197Z,1.95
2017-12-13T03:51:48.158Z,1.52
2017-12-13T03:54:22.815Z,2.08
2017-12-13T03:57:00.892Z,1.83
2017-12-13T03:59:34.711Z,2.20
2017-12-13T04:02:11.377Z,1.90
2017-12-13T04:04:45.181Z,1.98
2017-12-13T04:07:21.036Z,2.00
2017-12-13T04:09:55.662Z,2.35
2017-12-13T04:12:36.121Z,2.15
2017-12-13T04:15:09.814Z,1.85
2017-12-13T04:17:46.844Z,1.92
2017-12-13T04:20:20.753Z,2.20
2017-12-13T04:22:55.342Z,1.92
2017-12-13T04:25:29.296Z,2.12
2017-12-13T04:28:03.141Z,2.42
2017-12-13T04:30:42.563Z,1.85
2017-12-13T04:33:16.492Z,2.28
2017-12-13T04:35:52.291Z,1.92
2017-12-13T04:38:26.121Z,1.98
2017-12-13T04:41:03.819Z,2.42
2017-12-13T04:43:37.842Z,2.37
2017-12-13T04:46:33.144Z,2.53
2017-12-13T04:49:26.152Z,2.00
2017-12-13T04:51:59.954Z,1.95
2017-12-13T04:54:51.080Z,2.08
2017-12-13T04:57:25.632Z,2.78
2017-12-13T05:00:05.998Z,2.15
2017-12-13T05:02:39.828Z,1.92
2017-12-13T05:05:13.779Z,2.37
2017-12-13T05:07:49.060Z,2.30
2017-12-13T05:10:23.051Z,2.35
2017-12-13T05:12:57.016Z,2.28
2017-12-13T05:15:36.714Z,2.35
2017-12-13T05:18:11.316Z,2.60
2017-12-13T05:23:46.958Z,1.80
2017-12-13T05:26:21.945Z,1.85
2017-12-13T05:29:03.966Z,3.20
2017-12-13T05:31:38.285Z,1.60
2017-12-13T05:34:13.323Z,2.00
2017-12-13T05:36:47.177Z,1.45
2017-12-13T05:39:21.063Z,2.78
2017-12-13T05:41:54.839Z,2.10
2017-12-13T05:44:29.364Z,3.55
2017-12-13T05:47:03.126Z,2.40
2017-12-13T05:49:37.535Z,2.33
2017-12-13T05:52:11.389Z,2.25
2017-12-13T05:54:50.989Z,1.77
2017-12-13T05:57:43.245Z,1.90
2017-12-13T06:00:22.710Z,2.30
2017-12-13T06:06:01.837Z,2.30
2017-12-13T06:08:36.205Z,2.42
2017-12-13T06:11:11.049Z,2.50
2017-12-13T06:13:51.551Z,2.90
2017-12-13T06:16:25.416Z,2.83
2017-12-13T06:19:08.557Z,2.95
2017-12-13T06:21:42.300Z,3.62
2017-12-13T06:24:16.904Z,2.00
2017-12-13T06:26:51.511Z,3.08
2017-12-13T06:29:29.106Z,3.12
2017-12-13T06:32:03.381Z,3.40
2017-12-13T06:34:43.759Z,3.85
2017-12-13T06:37:17.780Z,8.23
2017-12-13T06:40:09.430Z,4.90
2017-12-13T06:42:43.738Z,3.37
2017-12-13T06:45:19.372Z,3.70
2017-12-13T06:47:58.664Z,3.50
2017-12-13T06:54:01.800Z,3.50
2017-12-13T06:59:40.716Z,3.90
2017-12-13T07:02:18.929Z,3.80
2017-12-13T07:04:53.137Z,3.62
2017-12-13T07:07:31.113Z,4.28
2017-12-13T07:10:04.926Z,2.95
2017-12-13T07:12:48.294Z,3.85
2017-12-13T07:15:28.438Z,3.33
2017-12-13T07:18:06.899Z,3.92
2017-12-13T07:20:40.707Z,3.40
2017-12-13T07:23:16.861Z,3.33
2017-12-13T07:25:52.783Z,3.92
2017-12-13T07:28:26.660Z,3.60
2017-12-13T07:31:01.429Z,4.43
2017-12-13T07:33:35.561Z,3.75
2017-12-13T07:39:23.256Z,4.20
2017-12-13T07:48:49.017Z,5.28
2017-12-13T07:51:43.142Z,5.22
2017-12-13T07:54:47.965Z,5.62
2017-12-13T08:04:06.905Z,5.62
2017-12-13T08:06:40.662Z,5.75
2017-12-13T08:09:15.564Z,5.18
2017-12-13T08:11:50.244Z,6.37
2017-12-13T08:14:25.101Z,5.68
2017-12-13T08:17:00.859Z,8.50
2017-12-13T08:19:34.772Z,6.15
2017-12-13T08:22:08.740Z,7.00
2017-12-13T08:24:44.259Z,5.53
2017-12-13T08:27:20.205Z,6.65
2017-12-13T08:29:54.092Z,4.60
2017-12-13T08:32:27.959Z,5.07
2017-12-13T08:35:04.695Z,5.35
2017-12-13T08:37:39.398Z,4.87
2017-12-13T08:40:14.381Z,4.50
2017-12-13T08:42:48.295Z,3.55
2017-12-13T08:45:22.548Z,4.80
2017-12-13T08:47:56.660Z,3.78
2017-12-13T08:50:31.191Z,3.50
2017-12-13T08:53:05.393Z,3.87
2017-12-13T08:55:40.329Z,4.30
2017-12-13T08:58:14.265Z,3.78
2017-12-13T09:00:55.596Z,4.00
2017-12-13T09:03:29.676Z,3.40
2017-12-13T09:06:06.839Z,4.03
2017-12-13T09:11:37.080Z,3.55
2017-12-13T09:14:10.992Z,3.00
2017-12-13T09:16:45.083Z,3.70
2017-12-13T09:19:18.828Z,3.33
2017-12-13T09:21:54.095Z,2.70
2017-12-13T09:24:52.882Z,3.37
2017-12-13T09:27:27.468Z,3.70
2017-12-13T09:30:02.159Z,2.70
2017-12-13T09:32:35.988Z,2.80
2017-12-13T09:35:09.780Z,2.78
2017-12-13T09:37:43.697Z,4.90
2017-12-13T09:40:17.625Z,8.25
2017-12-13T09:42:51.441Z,3.25
2017-12-13T09:45:26.138Z,3.72
2017-12-13T09:47:59.988Z,3.25
2017-12-13T09:50:34.726Z,3.35
2017-12-13T09:53:09.039Z,4.80
2017-12-13T09:55:42.976Z,2.65
2017-12-13T09:58:17.722Z,2.90
2017-12-13T10:00:51.834Z,2.75
2017-12-13T10:03:25.795Z,2.45
2017-12-13T10:05:59.924Z,2.75
2017-12-13T10:08:34.557Z,2.45
2017-12-13T10:11:11.204Z,4.28
2017-12-13T10:13:45.770Z,2.28
2017-12-13T10:16:19.730Z,3.20
2017-12-13T10:18:56.475Z,2.30
2017-12-13T10:21:30.995Z,2.37
2017-12-13T10:24:05.680Z,2.53
2017-12-13T10:26:39.767Z,2.62
2017-12-13T10:29:14.686Z,3.58
2017-12-13T10:31:49.424Z,2.58
2017-12-13T10:34:23.376Z,2.53
2017-12-13T10:37:01.485Z,2.45
2017-12-13T10:39:39.160Z,2.72
2017-12-13T10:42:14.771Z,2.87
2017-12-13T10:44:48.721Z,2.75
2017-12-13T10:47:24.654Z,2.67
2017-12-13T10:50:05.213Z,2.20
2017-12-13T10:52:41.631Z,1.53
2017-12-13T10:55:18.366Z,2.33
2017-12-13T10:58:02.717Z,1.80
2017-12-13T11:00:38.927Z,1.80
2017-12-13T11:03:15.884Z,2.33
2017-12-13T11:05:51.057Z,2.42
2017-12-13T11:08:27.765Z,2.40
2017-12-13T11:11:07.258Z,2.40
2017-12-13T11:13:44.637Z,3.42
2017-12-13T11:16:19.331Z,2.42
2017-12-13T11:18:56.245Z,2.17
2017-12-13T11:21:30.162Z,2.35
2017-12-13T11:24:04.021Z,2.33
2017-12-13T11:26:39.271Z,3.25
2017-12-13T11:29:16.531Z,1.73
2017-12-13T11:32:08.500Z,1.58
2017-12-13T11:34:42.416Z,2.30
2017-12-13T11:37:16.683Z,2.00
2017-12-13T11:39:51.362Z,2.67
2017-12-13T11:42:25.820Z,2.67
2017-12-13T11:45:01.311Z,2.50
2017-12-13T11:47:38.028Z,1.98
2017-12-13T11:50:14.786Z,2.20
2017-12-13T11:52:55.632Z,1.70
2017-12-13T11:55:31.398Z,2.28
2017-12-13T11:58:06.409Z,2.00
2017-12-13T12:00:40.425Z,2.05
2017-12-13T12:03:15.296Z,2.80
2017-12-13T12:05:50.292Z,2.33
2017-12-13T12:08:26.210Z,2.25
2017-12-13T12:11:00.220Z,1.60
2017-12-13T12:13:34.136Z,2.20
2017-12-13T12:16:09.467Z,1.73
2017-12-13T12:18:45.362Z,1.40
2017-12-13T12:21:19.094Z,1.80
2017-12-13T12:23:53.548Z,2.22
2017-12-13T12:26:28.406Z,1.95
2017-12-13T12:29:04.786Z,1.77
2017-12-13T12:31:38.712Z,1.50
2017-12-13T12:34:12.484Z,1.73
2017-12-13T12:36:46.628Z,1.83
2017-12-13T12:39:21.798Z,2.00
2017-12-13T12:42:18.778Z,2.72
2017-12-13T12:44:57.640Z,1.83
2017-12-13T12:47:34.852Z,1.45
2017-12-13T12:50:08.682Z,2.20
2017-12-13T12:52:52.933Z,2.20
2017-12-13T12:55:26.714Z,1.92
2017-12-13T12:58:02.789Z,2.10
2017-12-13T13:00:36.697Z,1.98
2017-12-13T13:03:19.614Z,1.23
2017-12-13T13:05:55.298Z,1.62
2017-12-13T13:08:33.663Z,2.22
2017-12-13T13:11:18.898Z,3.30
2017-12-13T13:13:52.978Z,1.73
2017-12-13T13:16:34.231Z,1.90
2017-12-13T13:19:08.910Z,1.27
2017-12-13T13:21:42.917Z,1.73
2017-12-13T13:24:16.687Z,1.60
2017-12-13T13:26:51.583Z,1.65
2017-12-13T13:29:25.358Z,1.77
2017-12-13T13:31:59.169Z,1.70
2017-12-13T13:34:32.993Z,1.67
2017-12-13T13:37:08.995Z,1.52
2017-12-13T13:39:43.137Z,2.15
2017-12-13T13:42:16.992Z,2.40
2017-12-13T13:44:51.575Z,2.10
2017-12-13T13:47:27.270Z,2.95
2017-12-13T13:50:01.734Z,2.90
2017-12-13T13:52:48.253Z,3.70
2017-12-13T13:55:22.069Z,3.25
2017-12-13T13:58:14.827Z,3.10
2017-12-13T14:00:48.563Z,3.05
2017-12-13T14:03:23.113Z,2.05
2017-12-13T14:05:56.968Z,2.75
2017-12-13T14:08:30.828Z,2.00
2017-12-13T14:11:06.104Z,2.75
2017-12-13T14:13:39.857Z,3.20
2017-12-13T14:16:20.417Z,4.35
2017-12-13T14:18:54.218Z,3.30
2017-12-13T14:21:28.084Z,3.00
2017-12-13T14:24:02.682Z,6.80
2017-12-13T14:26:36.628Z,3.62
2017-12-13T14:29:12.944Z,2.95
2017-12-13T14:31:48.612Z,2.92
2017-12-13T14:34:23.767Z,2.30
2017-12-13T14:36:58.097Z,3.22
2017-12-13T14:39:32.126Z,2.35
2017-12-13T14:42:05.842Z,2.30
2017-12-13T14:44:41.566Z,2.15
2017-12-13T14:47:15.436Z,2.78
2017-12-13T14:49:49.417Z,2.22
2017-12-13T14:52:23.871Z,2.70
2017-12-13T14:54:57.971Z,3.25
2017-12-13T14:57:31.699Z,3.85
2017-12-13T15:00:05.736Z,3.00
2017-12-13T15:02:40.842Z,3.75
2017-12-13T15:05:19.543Z,2.92
2017-12-13T15:07:53.462Z,3.90
2017-12-13T15:10:28.471Z,3.15
2017-12-13T15:13:03.454Z,2.72
2017-12-13T15:15:37.230Z,3.67
2017-12-13T15:18:11.132Z,2.62
2017-12-13T15:20:44.945Z,3.80
2017-12-13T15:26:33.633Z,2.40
2017-12-13T15:29:10.635Z,2.90
2017-12-13T15:31:45.449Z,2.95
2017-12-13T15:34:20.084Z,3.22
2017-12-13T15:36:56.031Z,3.00
2017-12-13T15:39:30.710Z,3.45
2017-12-13T15:42:04.780Z,3.72
2017-12-13T15:44:38.733Z,2.70
2017-12-13T15:47:14.529Z,3.10
2017-12-13T15:49:48.472Z,3.53
2017-12-13T15:52:22.448Z,3.87
2017-12-13T15:54:56.171Z,3.50
2017-12-13T15:57:30.106Z,3.65
2017-12-13T16:00:04.047Z,4.10
2017-12-13T16:02:43.234Z,3.53
2017-12-13T16:05:17.026Z,3.80
2017-12-13T16:07:52.102Z,3.95
2017-12-13T16:10:26.186Z,3.35
2017-12-13T16:13:00.690Z,3.37
2017-12-13T16:15:34.820Z,3.45
2017-12-13T16:18:09.230Z,4.78
2017-12-13T16:23:45.911Z,6.10
2017-12-13T16:26:20.729Z,5.65
2017-12-13T16:28:55.760Z,4.82
2017-12-13T16:31:31.123Z,3.58
2017-12-13T16:34:04.958Z,3.33
2017-12-13T16:36:43.777Z,3.10
2017-12-13T16:39:22.652Z,3.20
2017-12-13T16:41:56.490Z,3.10
2017-12-13T16:44:31.528Z,2.83
2017-12-13T16:47:05.388Z,2.75
2017-12-13T16:49:40.095Z,2.50
2017-12-13T16:52:14.356Z,3.75
2017-12-13T16:54:59.366Z,2.62
2017-12-13T16:57:33.367Z,2.12
2017-12-13T17:00:31.550Z,2.37
2017-12-13T17:03:05.601Z,2.55
2017-12-13T17:05:39.634Z,2.85
2017-12-13T17:08:13.445Z,2.80
2017-12-13T17:10:49.164Z,2.67
2017-12-13T17:13:22.938Z,2.72
2017-12-13T17:16:00.054Z,2.60
2017-12-13T17:18:34.068Z,2.50
2017-12-13T17:21:07.992Z,2.65
2017-12-13T17:23:42.514Z,3.42
2017-12-13T17:26:18.060Z,2.28
2017-12-13T17:28:53.798Z,3.03
2017-12-13T17:31:27.700Z,3.70
2017-12-13T17:34:03.392Z,2.17
2017-12-13T17:36:37.885Z,2.65
2017-12-13T17:39:11.659Z,2.60
2017-12-13T17:41:46.843Z,3.10
2017-12-13T17:44:20.564Z,3.17
2017-12-13T17:46:57.006Z,2.30
2017-12-13T17:49:31.878Z,1.77
2017-12-13T17:52:06.420Z,2.22
2017-12-13T17:54:42.181Z,3.10
2017-12-13T17:57:16.907Z,3.42
2017-12-13T17:59:50.749Z,2.67
2017-12-13T18:02:25.416Z,2.03
2017-12-13T18:05:00.438Z,2.40
2017-12-13T18:07:35.596Z,2.08
2017-12-13T18:10:09.346Z,1.90
2017-12-13T18:12:44.113Z,2.80
2017-12-13T18:15:18.764Z,2.08
2017-12-13T18:17:52.652Z,3.05
2017-12-13T18:20:26.477Z,1.90
2017-12-13T18:23:00.768Z,1.95
2017-12-13T18:25:35.693Z,2.42
2017-12-13T18:28:09.542Z,2.20
2017-12-13T18:30:44.227Z,2.30
2017-12-13T18:33:18.186Z,1.75
2017-12-13T18:35:52.179Z,3.22
2017-12-13T18:38:34.398Z,2.20
2017-12-13T18:41:08.339Z,1.90
2017-12-13T18:43:49.912Z,2.55
2017-12-13T18:46:23.880Z,2.50
2017-12-13T18:49:02.122Z,2.10
2017-12-13T18:51:35.989Z,2.60
2017-12-13T18:54:23.238Z,1.95
2017-12-13T18:56:57.271Z,2.20
2017-12-13T18:59:38.318Z,1.75
2017-12-13T19:02:12.152Z,2.30
2017-12-13T19:04:54.099Z,1.62
2017-12-13T19:07:30.052Z,1.80
2017-12-13T19:10:03.911Z,1.52
2017-12-13T19:12:38.199Z,1.30
2017-12-13T19:15:14.536Z,1.73
2017-12-13T19:17:55.131Z,1.35
2017-12-13T19:20:29.007Z,1.50
2017-12-13T19:23:05.824Z,1.73
2017-12-13T19:25:43.651Z,1.30
2017-12-13T19:28:19.119Z,1.40
2017-12-13T19:30:53.836Z,1.50
2017-12-13T19:33:35.147Z,1.10
2017-12-13T19:36:13.038Z,1.80
2017-12-13T19:38:47.184Z,1.45
2017-12-13T19:41:31.748Z,1.42
2017-12-13T19:44:09.149Z,1.45
2017-12-13T19:46:45.952Z,1.42
2017-12-13T19:49:19.777Z,2.17
2017-12-13T19:51:53.666Z,1.67
2017-12-13T19:54:28.259Z,0.93
2017-12-13T19:57:02.416Z,1.08
2017-12-13T19:59:36.610Z,1.00
2017-12-13T20:02:11.234Z,1.50
2017-12-13T20:04:45.303Z,1.37
2017-12-13T20:07:20.007Z,1.12
2017-12-13T20:09:54.588Z,1.52
2017-12-13T20:12:28.623Z,1.00
2017-12-13T20:15:15.314Z,1.25
2017-12-13T20:17:50.010Z,1.00
2017-12-13T20:20:24.070Z,0.80
2017-12-13T20:22:58.791Z,1.40
2017-12-13T20:25:33.924Z,1.20
2017-12-13T20:28:10.387Z,1.48
2017-12-13T20:30:45.468Z,0.80
2017-12-13T20:33:19.452Z,0.73
2017-12-13T20:35:53.405Z,0.85
2017-12-13T20:38:28.058Z,0.70
2017-12-13T20:41:04.765Z,0.70
2017-12-13T20:43:40.088Z,0.90
2017-12-13T20:46:14.014Z,0.80
2017-12-13T20:48:47.905Z,0.80
2017-12-13T20:51:24.140Z,0.90
2017-12-13T20:53:58.066Z,0.70
2017-12-13T20:56:34.104Z,1.00
2017-12-13T20:59:08.221Z,1.10
2017-12-13T21:01:42.170Z,0.80
2017-12-13T21:04:16.345Z,0.47
2017-12-13T21:06:50.178Z,1.60
2017-12-13T21:09:24.315Z,1.10
2017-12-13T21:11:58.895Z,1.00
2017-12-13T21:14:32.924Z,1.20
2017-12-13T21:17:06.787Z,0.60
2017-12-13T21:19:40.787Z,0.98
2017-12-13T21:22:14.712Z,1.10
2017-12-13T21:24:50.128Z,0.70
2017-12-13T21:27:23.945Z,1.20
2017-12-13T21:29:58.171Z,0.70
2017-12-13T21:32:32.173Z,1.02
2017-12-13T21:35:07.287Z,0.80
2017-12-13T21:37:41.115Z,1.45
2017-12-13T21:40:17.958Z,0.90
2017-12-13T21:42:52.586Z,0.98
2017-12-13T21:45:26.650Z,2.25
2017-12-13T21:48:01.711Z,0.60
2017-12-13T21:50:36.376Z,0.90
2017-12-13T21:53:10.347Z,0.70
2017-12-13T21:55:44.144Z,0.90
2017-12-13T21:58:21.846Z,1.10
2017-12-13T22:00:55.633Z,1.00
2017-12-13T22:03:30.330Z,0.80
2017-12-13T22:06:05.257Z,1.17
2017-12-13T22:08:39.237Z,1.55
2017-12-13T22:11:13.367Z,0.80
2017-12-13T22:13:48.197Z,0.77
2017-12-13T22:16:22.053Z,0.77
2017-12-13T22:18:56.146Z,0.70
2017-12-13T22:21:32.332Z,0.68
2017-12-13T22:24:06.173Z,0.70
2017-12-13T22:26:40.294Z,0.80
2017-12-13T22:29:14.508Z,0.77
2017-12-13T22:31:48.382Z,0.45
2017-12-13T22:34:25.992Z,0.95
2017-12-13T22:37:01.212Z,0.90
2017-12-13T22:39:35.331Z,0.70
2017-12-13T22:42:09.104Z,0.70
2017-12-13T22:44:44.306Z,0.93
2017-12-13T22:47:18.362Z,0.60
2017-12-13T22:49:52.346Z,0.85
2017-12-13T22:52:27.509Z,1.00
2017-12-13T22:55:03.004Z,0.80
2017-12-13T22:57:39.109Z,0.70
2017-12-13T23:00:13.219Z,0.80
2017-12-13T23:02:47.381Z,0.85
2017-12-13T23:05:21.569Z,1.02
2017-12-13T23:07:55.348Z,0.60
2017-12-13T23:10:33.125Z,0.70
2017-12-13T23:13:06.966Z,0.70
2017-12-13T23:15:41.670Z,0.65
2017-12-13T23:18:15.647Z,1.05
2017-12-13T23:24:08.438Z,0.60
2017-12-13T23:26:42.264Z,1.05
2017-12-13T23:29:17.238Z,0.77
2017-12-13T23:31:51.450Z,0.80
2017-12-13T23:34:25.264Z,0.70
2017-12-13T23:37:07.867Z,0.80
2017-12-13T23:39:41.676Z,0.80
2017-12-13T23:42:16.452Z,0.80
2017-12-13T23:44:50.702Z,0.90
2017-12-13T23:47:36.637Z,0.70
2017-12-13T23:50:10.451Z,0.88
2017-12-13T23:53:02.483Z,0.90
2017-12-13T23:55:36.237Z,1.27
2017-12-13T23:58:14.080Z,1.30
